Delhi, Colorado
Current Conditions -  °F | °C
As of 4:54 PM on Friday 24 Oct 2014 (Local Time) from KTAD Reporting Station
Clear Clear  
Wind Chill: 80°   Ceiling: Unl
Heat Index: 80°   Visibility: 10mi
Dew Point: 27°   Wind: 6mph
Humidity: 14%   Direction: 70°ENE
Pressure: 30.18"   Gusts: NA
Location:  37.5307°N, 104.063°W
Report Text: KTAD 242254Z AUTO 07005KT 10SM CLR 27/M03 A3018 RMK AO2 SLP150 T02671028
Loading
Personal Weather Stations






























Interactive Weather Map
Tropical Storm Tracking
New forecast layout! Learn more

10-Day Weather Forecast

Advertisements
Track Severe Weather on mobile